createdAt,value
2022-11-20T00:01:22.193Z,13.75
2022-11-20T00:03:49.329Z,14.40
2022-11-20T00:06:19.063Z,14.55
2022-11-20T00:08:46.639Z,13.15
2022-11-20T00:11:16.690Z,13.10
2022-11-20T00:13:44.670Z,13.15
2022-11-20T00:16:13.543Z,14.17
2022-11-20T00:18:40.183Z,13.88
2022-11-20T00:21:15.001Z,14.77
2022-11-20T00:23:42.463Z,15.50
2022-11-20T00:26:12.288Z,12.77
2022-11-20T00:28:38.832Z,13.20
2022-11-20T00:31:07.357Z,12.45
2022-11-20T00:33:34.337Z,12.82
2022-11-20T00:36:04.883Z,12.75
2022-11-20T00:38:32.506Z,13.55
2022-11-20T00:41:01.380Z,12.77
2022-11-20T00:43:28.576Z,12.52
2022-11-20T00:46:02.924Z,11.90
2022-11-20T00:48:29.668Z,13.20
2022-11-20T00:50:56.640Z,12.73
2022-11-20T00:53:23.814Z,12.83
2022-11-20T00:56:01.124Z,14.68
2022-11-20T00:58:32.154Z,13.52
2022-11-20T01:01:06.662Z,12.65
2022-11-20T01:03:34.369Z,12.60
2022-11-20T01:06:05.839Z,12.93
2022-11-20T01:08:33.389Z,12.80
2022-11-20T01:11:03.787Z,13.23
2022-11-20T01:13:40.406Z,12.77
2022-11-20T01:16:15.267Z,13.70
2022-11-20T01:18:44.912Z,13.90
2022-11-20T01:21:17.643Z,13.23
2022-11-20T01:23:45.754Z,14.88
2022-11-20T01:26:17.230Z,14.75
2022-11-20T01:28:43.861Z,14.68
2022-11-20T01:31:16.356Z,14.30
2022-11-20T01:33:44.223Z,14.05
2022-11-20T01:36:11.959Z,13.90
2022-11-20T01:38:39.340Z,15.48
2022-11-20T01:41:06.856Z,15.05
2022-11-20T01:43:33.723Z,15.07
2022-11-20T01:46:18.854Z,14.55
2022-11-20T01:49:00.199Z,13.68
2022-11-20T01:51:49.495Z,13.15
2022-11-20T01:54:24.126Z,13.15
2022-11-20T01:56:55.266Z,13.17
2022-11-20T01:59:25.320Z,14.15
2022-11-20T02:01:52.027Z,13.82
2022-11-20T02:04:19.353Z,14.63
2022-11-20T02:06:51.653Z,15.77
2022-11-20T02:09:18.393Z,14.90
2022-11-20T02:11:44.978Z,15.15
2022-11-20T02:14:11.920Z,17.60
2022-11-20T02:16:44.774Z,16.25
2022-11-20T02:19:24.449Z,17.00
2022-11-20T02:22:15.620Z,17.27
2022-11-20T02:24:44.884Z,16.60
2022-11-20T02:27:14.316Z,16.67
2022-11-20T02:30:03.292Z,17.63
2022-11-20T02:32:32.815Z,17.60
2022-11-20T02:35:06.938Z,18.60
2022-11-20T02:37:37.323Z,18.80
2022-11-20T02:40:04.815Z,16.85
2022-11-20T02:42:31.321Z,18.33
2022-11-20T02:44:57.812Z,17.65
2022-11-20T02:47:24.381Z,17.80
2022-11-20T02:49:50.873Z,19.27
2022-11-20T02:52:17.418Z,18.95
2022-11-20T02:54:43.928Z,19.98
2022-11-20T02:57:10.414Z,19.55
2022-11-20T02:59:36.932Z,17.73
2022-11-20T03:02:03.454Z,18.35
2022-11-20T03:04:30.026Z,19.48
2022-11-20T03:06:56.616Z,16.25
2022-11-20T03:09:23.471Z,15.63
2022-11-20T03:11:50.195Z,16.90
2022-11-20T03:14:16.851Z,15.55
2022-11-20T03:16:43.418Z,16.77
2022-11-20T03:19:10.259Z,13.18
2022-11-20T03:21:36.939Z,14.48
2022-11-20T03:24:04.312Z,14.27
2022-11-20T03:26:31.286Z,14.70
2022-11-20T03:29:00.396Z,15.70
2022-11-20T03:31:33.040Z,14.50
2022-11-20T03:34:00.648Z,18.00
2022-11-20T03:36:28.703Z,23.30
2022-11-20T03:38:56.552Z,24.50
2022-11-20T03:41:27.950Z,20.58
2022-11-20T03:43:56.723Z,21.52
2022-11-20T03:46:23.944Z,22.40
2022-11-20T03:48:52.204Z,22.37
2022-11-20T03:51:21.653Z,24.38
2022-11-20T03:53:49.912Z,21.35
2022-11-20T03:56:18.608Z,22.85
2022-11-20T03:58:45.240Z,22.48
2022-11-20T04:01:14.488Z,21.70
2022-11-20T04:03:42.632Z,22.15
2022-11-20T04:06:18.286Z,23.05
2022-11-20T04:08:48.504Z,24.23
2022-11-20T04:11:20.928Z,24.33
2022-11-20T04:13:51.838Z,25.97
2022-11-20T04:16:19.151Z,26.52
2022-11-20T04:18:45.956Z,27.88
2022-11-20T04:21:12.885Z,27.25
2022-11-20T04:23:40.061Z,27.38
2022-11-20T04:26:09.589Z,26.70
2022-11-20T04:28:37.027Z,26.92
2022-11-20T04:31:08.939Z,28.17
2022-11-20T04:33:36.394Z,26.13
2022-11-20T04:36:17.149Z,29.20
2022-11-20T04:38:44.324Z,28.53
2022-11-20T04:41:21.217Z,29.30
2022-11-20T04:43:51.609Z,30.33
2022-11-20T04:46:19.607Z,29.58
2022-11-20T04:48:46.475Z,30.77
2022-11-20T04:51:13.460Z,33.47
2022-11-20T04:53:40.588Z,29.23
2022-11-20T04:56:09.402Z,31.90
2022-11-20T04:58:35.977Z,32.33
2022-11-20T05:01:13.292Z,32.20
2022-11-20T05:03:42.640Z,28.33
2022-11-20T05:06:11.054Z,28.90
2022-11-20T05:08:37.712Z,28.20
2022-11-20T05:11:09.846Z,31.63
2022-11-20T05:13:36.910Z,31.50
2022-11-20T05:16:06.179Z,28.23
2022-11-20T05:18:33.772Z,30.42
2022-11-20T05:21:00.378Z,29.65
2022-11-20T05:23:27.522Z,29.25
2022-11-20T05:25:59.523Z,29.00
2022-11-20T05:28:27.961Z,27.47
2022-11-20T05:30:54.563Z,30.02
2022-11-20T05:33:21.812Z,31.25
2022-11-20T05:35:49.426Z,28.83
2022-11-20T05:38:16.315Z,28.80
2022-11-20T05:40:42.851Z,26.87
2022-11-20T05:43:09.327Z,28.08
2022-11-20T05:45:36.134Z,29.08
2022-11-20T05:48:02.667Z,28.13
2022-11-20T05:50:29.313Z,29.60
2022-11-20T05:52:56.131Z,30.20
2022-11-20T05:55:22.693Z,29.10
2022-11-20T05:57:49.198Z,27.45
2022-11-20T06:00:16.317Z,29.67
2022-11-20T06:02:42.866Z,29.27
2022-11-20T06:05:09.638Z,29.00
2022-11-20T06:07:36.256Z,28.92
2022-11-20T06:10:03.107Z,30.33
2022-11-20T06:12:29.626Z,30.65
2022-11-20T06:14:56.096Z,30.10
2022-11-20T06:17:22.673Z,25.27
2022-11-20T06:19:49.153Z,30.05
2022-11-20T06:22:15.677Z,28.52
2022-11-20T06:24:42.267Z,29.55
2022-11-20T06:27:08.758Z,32.65
2022-11-20T06:29:35.750Z,31.50
2022-11-20T06:32:02.623Z,28.17
2022-11-20T06:34:29.157Z,24.08
2022-11-20T06:36:55.670Z,27.00
2022-11-20T06:39:22.513Z,27.02
2022-11-20T06:41:49.564Z,27.80
2022-11-20T06:44:17.134Z,27.85
2022-11-20T06:46:43.615Z,30.00
2022-11-20T06:49:10.317Z,27.63
2022-11-20T06:51:37.089Z,27.98
2022-11-20T06:54:03.988Z,27.90
2022-11-20T06:56:30.496Z,27.48
2022-11-20T06:58:57.056Z,26.50
2022-11-20T07:01:23.558Z,23.83
2022-11-20T07:03:54.375Z,27.27
2022-11-20T07:06:21.066Z,27.13
2022-11-20T07:08:48.084Z,29.52
2022-11-20T07:11:14.910Z,31.30
2022-11-20T07:13:41.439Z,29.67
2022-11-20T07:16:09.255Z,28.45
2022-11-20T07:18:36.494Z,25.57
2022-11-20T07:21:05.195Z,26.17
2022-11-20T07:23:32.120Z,27.55
2022-11-20T07:25:58.955Z,26.30
2022-11-20T07:28:25.567Z,21.52
2022-11-20T07:30:53.247Z,23.87
2022-11-20T07:33:20.764Z,26.13
2022-11-20T07:35:47.292Z,27.58
2022-11-20T07:38:13.839Z,27.40
2022-11-20T07:40:40.516Z,26.13
2022-11-20T07:43:07.402Z,26.20
2022-11-20T07:45:33.985Z,23.95
2022-11-20T07:48:00.472Z,23.98
2022-11-20T07:50:27.017Z,25.33
2022-11-20T07:52:53.724Z,26.35
2022-11-20T07:55:20.250Z,26.73
2022-11-20T07:57:46.778Z,26.67
2022-11-20T08:00:14.023Z,25.58
2022-11-20T08:02:41.958Z,27.00
2022-11-20T08:05:10.610Z,25.95
2022-11-20T08:07:41.395Z,25.57
2022-11-20T08:10:09.429Z,26.80
2022-11-20T08:12:54.690Z,25.85
2022-11-20T08:15:21.674Z,26.50
2022-11-20T08:18:08.444Z,25.77
2022-11-20T08:20:35.870Z,25.67
2022-11-20T08:23:04.879Z,25.40
2022-11-20T08:25:32.256Z,23.35
2022-11-20T08:28:00.587Z,23.83
2022-11-20T08:30:28.642Z,21.35
2022-11-20T08:32:56.175Z,23.47
2022-11-20T08:35:23.058Z,23.08
2022-11-20T08:37:49.942Z,21.50
2022-11-20T08:40:19.619Z,20.52
2022-11-20T08:42:52.726Z,20.77
2022-11-20T08:45:20.025Z,20.30
2022-11-20T08:47:47.241Z,21.20
2022-11-20T08:50:16.231Z,21.63
2022-11-20T08:52:42.803Z,19.38
2022-11-20T08:55:10.046Z,21.00
2022-11-20T08:57:37.861Z,19.70
2022-11-20T09:00:07.116Z,21.75
2022-11-20T09:02:34.004Z,21.45
2022-11-20T09:05:00.596Z,21.75
2022-11-20T09:07:27.140Z,20.55
2022-11-20T09:10:16.550Z,20.67
2022-11-20T09:12:40.160Z,20.02
2022-11-20T09:15:07.173Z,20.58
2022-11-20T09:17:33.781Z,20.90
2022-11-20T09:20:00.306Z,20.67
2022-11-20T09:22:26.864Z,19.73
2022-11-20T09:24:53.431Z,21.27
2022-11-20T09:27:23.196Z,21.40
2022-11-20T09:29:49.737Z,22.48
2022-11-20T09:32:16.418Z,21.20
2022-11-20T09:34:42.899Z,22.53
2022-11-20T09:37:09.455Z,19.33
2022-11-20T09:39:40.298Z,17.85
2022-11-20T09:42:22.483Z,19.65
2022-11-20T09:44:54.968Z,18.10
2022-11-20T09:47:56.200Z,21.77
2022-11-20T09:50:53.817Z,19.15
2022-11-20T09:53:36.069Z,22.13
2022-11-20T09:56:04.565Z,20.92
2022-11-20T09:58:40.532Z,21.75
2022-11-20T10:01:30.262Z,19.53
2022-11-20T10:04:07.068Z,19.63
2022-11-20T10:06:40.680Z,20.40
2022-11-20T10:09:20.077Z,20.17
2022-11-20T10:11:52.689Z,19.08
2022-11-20T10:14:58.622Z,18.67
2022-11-20T10:21:39.600Z,17.88
2022-11-20T10:24:28.428Z,15.15
2022-11-20T10:27:10.112Z,17.48
2022-11-20T10:29:43.911Z,19.03
2022-11-20T10:32:17.467Z,17.65
2022-11-20T10:35:05.055Z,17.90
2022-11-20T10:37:35.945Z,17.25
2022-11-20T10:40:21.103Z,16.95
2022-11-20T10:42:52.839Z,18.03
2022-11-20T10:45:35.785Z,15.80
2022-11-20T10:48:08.465Z,18.10
2022-11-20T10:50:41.231Z,19.65
2022-11-20T10:53:44.287Z,18.10
2022-11-20T10:56:39.956Z,18.10
2022-11-20T10:59:24.559Z,18.70
2022-11-20T11:01:51.215Z,16.60
2022-11-20T11:04:41.944Z,17.27
2022-11-20T11:07:16.271Z,15.05
2022-11-20T11:09:49.188Z,14.20
2022-11-20T11:12:15.899Z,17.80
2022-11-20T11:14:44.179Z,17.30
2022-11-20T11:17:22.519Z,16.27
2022-11-20T11:20:19.804Z,16.58
2022-11-20T11:22:52.136Z,13.83
2022-11-20T11:25:36.148Z,16.80
2022-11-20T11:28:19.218Z,16.58
2022-11-20T11:30:46.592Z,16.40
2022-11-20T11:33:21.270Z,14.65
2022-11-20T11:35:59.260Z,16.50
2022-11-20T11:38:37.279Z,14.73
2022-11-20T11:41:05.565Z,15.38
2022-11-20T11:43:56.520Z,14.38
2022-11-20T11:46:31.683Z,14.95
2022-11-20T11:49:00.031Z,12.07
2022-11-20T11:51:39.359Z,12.07
2022-11-20T11:54:17.597Z,9.10
2022-11-20T11:56:45.223Z,12.63
2022-11-20T11:59:18.582Z,13.77
2022-11-20T12:01:54.255Z,11.37
2022-11-20T12:04:59.924Z,12.32
2022-11-20T12:07:48.361Z,9.48
2022-11-20T12:10:23.591Z,10.70
2022-11-20T12:13:01.931Z,12.85
2022-11-20T12:15:34.097Z,11.57
2022-11-20T12:18:01.663Z,10.52
2022-11-20T12:20:36.405Z,11.30
2022-11-20T12:23:15.388Z,9.68
2022-11-20T12:25:47.339Z,11.40
2022-11-20T12:28:38.144Z,10.43
2022-11-20T12:31:23.319Z,9.93
2022-11-20T12:34:03.935Z,10.75
2022-11-20T12:36:48.430Z,10.77
2022-11-20T12:39:41.880Z,9.93
2022-11-20T12:42:43.104Z,10.13
2022-11-20T12:45:33.976Z,9.57
2022-11-20T12:48:43.547Z,9.18
2022-11-20T12:51:37.005Z,9.45
2022-11-20T12:54:25.327Z,8.43
2022-11-20T12:57:26.989Z,9.83
2022-11-20T13:00:11.984Z,8.93
2022-11-20T13:02:51.942Z,7.30
2022-11-20T13:05:42.975Z,7.45
2022-11-20T13:08:17.886Z,5.65
2022-11-20T13:11:04.374Z,7.63
2022-11-20T13:13:30.885Z,8.32
2022-11-20T13:16:05.865Z,5.38
2022-11-20T13:18:40.709Z,5.93
2022-11-20T13:21:36.055Z,5.38
2022-11-20T13:24:24.615Z,6.63
2022-11-20T13:27:14.720Z,5.75
2022-11-20T13:29:45.297Z,8.05
2022-11-20T13:32:18.785Z,6.97
2022-11-20T13:35:02.721Z,4.80
2022-11-20T13:37:38.130Z,6.57
2022-11-20T13:40:12.080Z,4.75
2022-11-20T13:42:45.759Z,3.85
2022-11-20T13:45:35.252Z,4.40
2022-11-20T13:48:22.292Z,2.80
2022-11-20T13:51:04.472Z,4.23
2022-11-20T13:54:08.436Z,3.70
2022-11-20T13:56:53.031Z,4.60
2022-11-20T13:59:25.593Z,4.32
2022-11-20T14:01:52.259Z,4.22
2022-11-20T14:04:34.038Z,3.53
2022-11-20T14:07:00.885Z,3.53
2022-11-20T14:09:34.916Z,3.28
2022-11-20T14:12:03.965Z,3.80
2022-11-20T14:14:34.107Z,4.85
2022-11-20T14:17:23.839Z,3.10
2022-11-20T14:19:55.085Z,3.25
2022-11-20T14:22:24.263Z,3.17
2022-11-20T14:25:22.348Z,3.25
2022-11-20T14:27:53.148Z,3.80
2022-11-20T14:30:24.513Z,4.07
2022-11-20T14:32:52.621Z,3.35
2022-11-20T14:35:25.841Z,2.70
2022-11-20T14:37:55.770Z,4.30
2022-11-20T14:40:26.870Z,6.47
2022-11-20T14:42:54.157Z,7.57
2022-11-20T14:45:22.376Z,3.70
2022-11-20T14:47:50.007Z,3.88
2022-11-20T14:50:23.906Z,3.90
2022-11-20T14:52:55.858Z,3.72
2022-11-20T14:55:30.056Z,3.37
2022-11-20T14:58:07.885Z,3.75
2022-11-20T15:00:35.720Z,5.45
2022-11-20T15:03:02.472Z,6.15
2022-11-20T15:05:49.761Z,6.82
2022-11-20T15:08:17.433Z,10.23
2022-11-20T15:10:51.614Z,9.82
2022-11-20T15:13:37.983Z,17.60
2022-11-20T15:16:16.936Z,10.18
2022-11-20T15:18:43.879Z,7.97
2022-11-20T15:21:13.030Z,3.57
2022-11-20T15:23:39.533Z,2.92
2022-11-20T15:26:07.572Z,3.45
2022-11-20T15:28:37.077Z,2.92
2022-11-20T15:31:05.293Z,3.40
2022-11-20T15:33:33.406Z,2.60
2022-11-20T15:36:00.873Z,2.80
2022-11-20T15:38:27.602Z,3.03
2022-11-20T15:40:54.477Z,2.95
2022-11-20T15:43:21.343Z,2.95
2022-11-20T15:45:52.454Z,2.53
2022-11-20T15:48:23.865Z,2.63
2022-11-20T15:51:22.965Z,2.78
2022-11-20T15:53:49.682Z,2.97
2022-11-20T15:56:16.698Z,2.17
2022-11-20T15:58:43.639Z,3.10
2022-11-20T16:01:16.373Z,2.85
2022-11-20T16:03:44.468Z,3.17
2022-11-20T16:06:11.421Z,2.65
2022-11-20T16:08:38.525Z,3.13
2022-11-20T16:11:05.552Z,2.93
2022-11-20T16:13:52.044Z,3.38
2022-11-20T16:16:34.128Z,3.70
2022-11-20T16:19:01.360Z,3.33
2022-11-20T16:21:32.022Z,3.42
2022-11-20T16:24:04.126Z,3.43
2022-11-20T16:26:31.083Z,4.15
2022-11-20T16:29:00.142Z,3.75
2022-11-20T16:31:27.713Z,2.88
2022-11-20T16:33:56.716Z,2.58
2022-11-20T16:36:25.510Z,2.77
2022-11-20T16:38:58.278Z,3.28
2022-11-20T16:41:26.755Z,2.70
2022-11-20T16:44:01.333Z,3.55
2022-11-20T16:46:32.530Z,3.13
2022-11-20T16:49:06.164Z,2.80
2022-11-20T16:51:36.142Z,2.97
2022-11-20T16:54:04.776Z,2.40
2022-11-20T16:56:31.359Z,2.78
2022-11-20T16:58:59.738Z,2.65
2022-11-20T17:01:28.897Z,2.80
2022-11-20T17:04:01.569Z,2.45
2022-11-20T17:06:30.757Z,2.90
2022-11-20T17:08:57.919Z,3.33
2022-11-20T17:11:26.724Z,3.90
2022-11-20T17:13:55.056Z,3.30
2022-11-20T17:16:23.170Z,3.40
2022-11-20T17:18:52.868Z,3.15
2022-11-20T17:21:19.836Z,2.72
2022-11-20T17:23:47.243Z,2.92
2022-11-20T17:26:17.813Z,2.60
2022-11-20T17:28:47.628Z,4.03
2022-11-20T17:31:16.756Z,2.90
2022-11-20T17:33:45.654Z,2.85
2022-11-20T17:36:15.471Z,3.05
2022-11-20T17:38:42.731Z,3.37
2022-11-20T17:41:13.366Z,3.88
2022-11-20T17:43:40.332Z,3.13
2022-11-20T17:46:12.107Z,3.10
2022-11-20T17:48:42.875Z,3.70
2022-11-20T17:51:11.411Z,2.40
2022-11-20T17:53:40.945Z,3.33
2022-11-20T17:56:25.910Z,2.67
2022-11-20T17:58:52.493Z,3.05
2022-11-20T18:01:19.299Z,3.13
2022-11-20T18:03:46.535Z,2.83
2022-11-20T18:06:19.320Z,3.13
2022-11-20T18:08:46.395Z,3.53
2022-11-20T18:11:17.116Z,2.72
2022-11-20T18:14:04.460Z,3.33
2022-11-20T18:16:35.960Z,2.83
2022-11-20T18:19:02.639Z,2.80
2022-11-20T18:21:30.069Z,3.10
2022-11-20T18:24:00.172Z,3.45
2022-11-20T18:26:27.150Z,3.50
2022-11-20T18:28:54.370Z,3.13
2022-11-20T18:31:21.403Z,2.65
2022-11-20T18:33:48.003Z,3.45
2022-11-20T18:36:20.986Z,2.67
2022-11-20T18:38:50.360Z,3.30
2022-11-20T18:41:38.834Z,3.13
2022-11-20T18:44:30.421Z,2.33
2022-11-20T18:46:57.316Z,2.75
2022-11-20T18:49:23.945Z,2.72
2022-11-20T18:51:50.487Z,2.88
2022-11-20T18:54:17.202Z,3.10
2022-11-20T18:56:43.908Z,3.45
2022-11-20T18:59:11.366Z,2.70
2022-11-20T19:01:38.367Z,2.17
2022-11-20T19:04:09.495Z,2.40
2022-11-20T19:06:37.249Z,2.33
2022-11-20T19:09:11.668Z,2.60
2022-11-20T19:11:40.082Z,2.60
2022-11-20T19:14:07.340Z,2.10
2022-11-20T19:16:34.642Z,2.75
2022-11-20T19:19:03.472Z,2.50
2022-11-20T19:21:30.650Z,2.17
2022-11-20T19:23:59.586Z,2.97
2022-11-20T19:26:26.644Z,2.30
2022-11-20T19:28:53.835Z,2.20
2022-11-20T19:31:27.062Z,2.50
2022-11-20T19:33:58.887Z,2.58
2022-11-20T19:36:28.389Z,2.33
2022-11-20T19:38:55.522Z,2.33
2022-11-20T19:41:29.062Z,2.13
2022-11-20T19:44:01.546Z,3.43
2022-11-20T19:46:29.761Z,2.05
2022-11-20T19:48:57.492Z,3.03
2022-11-20T19:51:26.324Z,2.75
2022-11-20T19:53:55.666Z,3.47
2022-11-20T19:56:22.526Z,3.03
2022-11-20T19:58:49.048Z,3.65
2022-11-20T20:01:18.659Z,2.75
2022-11-20T20:03:46.589Z,2.95
2022-11-20T20:06:18.716Z,2.77
2022-11-20T20:08:45.517Z,2.85
2022-11-20T20:11:17.532Z,2.65
2022-11-20T20:13:45.168Z,2.55
2022-11-20T20:16:13.767Z,2.88
2022-11-20T20:18:40.377Z,2.07
2022-11-20T20:21:09.204Z,2.50
2022-11-20T20:23:36.272Z,2.40
2022-11-20T20:26:04.950Z,1.90
2022-11-20T20:28:32.429Z,3.53
2022-11-20T20:31:09.745Z,2.93
2022-11-20T20:33:38.377Z,2.72
2022-11-20T20:36:13.787Z,2.00
2022-11-20T20:38:40.441Z,2.00
2022-11-20T20:41:06.969Z,2.45
2022-11-20T20:43:53.571Z,2.37
2022-11-20T20:46:20.479Z,2.47
2022-11-20T20:48:51.501Z,3.33
2022-11-20T20:51:20.864Z,2.42
2022-11-20T20:53:47.792Z,2.97
2022-11-20T20:56:14.534Z,3.50
2022-11-20T20:58:44.451Z,3.17
2022-11-20T21:01:13.639Z,3.55
2022-11-20T21:03:40.672Z,3.78
2022-11-20T21:06:09.916Z,4.22
2022-11-20T21:08:40.439Z,2.37
2022-11-20T21:11:11.987Z,2.72
2022-11-20T21:13:40.071Z,2.35
2022-11-20T21:16:07.156Z,2.30
2022-11-20T21:18:34.479Z,2.75
2022-11-20T21:21:22.944Z,3.13
2022-11-20T21:23:49.471Z,1.85
2022-11-20T21:26:16.338Z,2.20
2022-11-20T21:28:43.313Z,2.22
2022-11-20T21:31:10.989Z,1.85
2022-11-20T21:33:44.232Z,1.70
2022-11-20T21:36:13.683Z,2.45
2022-11-20T21:38:40.599Z,1.90
2022-11-20T21:41:09.575Z,1.85
2022-11-20T21:43:36.177Z,1.95
2022-11-20T21:46:04.940Z,2.53
2022-11-20T21:48:32.360Z,2.13
2022-11-20T21:51:07.245Z,2.20
2022-11-20T21:53:34.277Z,2.20
2022-11-20T21:56:01.262Z,2.00
2022-11-20T21:58:28.335Z,1.92
2022-11-20T22:00:55.125Z,1.88
2022-11-20T22:03:22.457Z,2.03
2022-11-20T22:05:59.158Z,1.63
2022-11-20T22:08:26.605Z,2.08
2022-11-20T22:10:55.216Z,2.00
2022-11-20T22:13:41.310Z,1.88
2022-11-20T22:16:08.361Z,1.98
2022-11-20T22:18:35.498Z,2.08
2022-11-20T22:21:07.856Z,2.40
2022-11-20T22:23:35.061Z,2.55
2022-11-20T22:26:09.503Z,2.53
2022-11-20T22:28:36.892Z,2.60
2022-11-20T22:31:06.198Z,2.13
2022-11-20T22:33:33.962Z,2.25
2022-11-20T22:36:14.747Z,2.20
2022-11-20T22:38:41.954Z,1.58
2022-11-20T22:41:22.822Z,2.03
2022-11-20T22:43:54.741Z,1.80
2022-11-20T22:46:21.239Z,2.35
2022-11-20T22:48:53.268Z,2.42
2022-11-20T22:51:22.080Z,1.58
2022-11-20T22:53:49.400Z,2.15
2022-11-20T22:56:17.389Z,2.00
2022-11-20T22:58:46.187Z,3.20
2022-11-20T23:01:15.523Z,1.90
2022-11-20T23:03:44.418Z,2.35
2022-11-20T23:06:12.151Z,2.20
2022-11-20T23:08:40.157Z,2.88
2022-11-20T23:11:09.534Z,2.13
2022-11-20T23:13:37.179Z,2.28
2022-11-20T23:16:06.499Z,2.65
2022-11-20T23:18:33.900Z,2.10
2022-11-20T23:21:08.324Z,2.28
2022-11-20T23:23:35.013Z,2.83
2022-11-20T23:26:05.286Z,2.00
2022-11-20T23:28:31.862Z,2.05
2022-11-20T23:30:58.599Z,2.60
2022-11-20T23:33:25.285Z,2.33
2022-11-20T23:35:52.121Z,2.67
2022-11-20T23:38:19.127Z,1.90
2022-11-20T23:40:52.057Z,2.53
2022-11-20T23:43:21.435Z,2.15
2022-11-20T23:45:55.735Z,1.83
2022-11-20T23:48:25.099Z,2.38
2022-11-20T23:50:51.611Z,1.50
2022-11-20T23:53:18.914Z,1.67
2022-11-20T23:55:47.616Z,1.63
2022-11-20T23:58:14.326Z,2.40
